Townsend, MT

5:10 PM MST on December 20, 2014 (GMT -0700)
Ray Creek Road | Change Station
CLOSE
Current Station
Personal Weather Station
Location: Townsend, MT
Elevation: 4147 ft
Nearby Weather Stations
Active Advisory: Winter Weather Advisory

Elev 4147 ft 46.39 °N, 111.41 °W | Updated 9 minutes ago

Mostly Cloudy
Mostly Cloudy
37.0 °F
Feels Like 30 °F
N
8.9
Wind Variable Wind from ESE

Today
High -- | Low -- °F
--% Chance of Precip.
Yesterday
High -- | Low -- °F
Precip. -- in
8:05 AM 4:41 PM
Waning Crescent, 1% visible
Pressure 29.88 in
Visibility 10.0 miles
Clouds Overcast 6500 ft
Windchill 30 °F
Dew Point 25 °F
Humidity 62%
Rainfall 0.00 in
Snow Depth Not available.
UV 0 out of 12
Pollen .10 out of 12
Air Quality Not available.
Flu Activity Not available.
METAR KHLN 202353Z 00000KT 10SM OVC065 02/M03 A2976 RMK AO2 SLP117 T00171028 10044 20006 58019

More Conditions Fewer Conditions

Pressure 29.88 in
Visibility 10.0 miles
Clouds Overcast 6500 ft
Windchill 30 °F
Dew Point 25 °F
Humidity 62%
Rainfall 0.00 in
Snow Depth Not available.
UV 0 out of 12
Pollen .10 out of 12
Air Quality Not available.
Flu Activity Not available.
METAR KHLN 202353Z 00000KT 10SM OVC065 02/M03 A2976 RMK AO2 SLP117 T00171028 10044 20006 58019

More Conditions Fewer Conditions

10-Day Weather Forecast

Almanac

Astronomy

Dec. 20, 2014 Rise Set
Actual Time
Civil Twilight
Nautical Twilight
Astronomical Twilight
Moon
Length of Visible Light
Length of Day
Tomorrow will be .
, % of the Moon is Illuminated

Today's Extremes

State Highs State Lows

Community

WunderPhotos

Upload Photos

1,779,322 photos uploaded!

WunderBlogs® & News

Nearby

Air Quality

  Air Quality AQ Index Pollutant
Not available.

Snow Depth

Station Depth Elevation

Earthquake Activity

City Distance Mag. Time & Date
Minimum magnitude displayed is 2.5.

Coastal Water Temperatures

Place Temperature

Nearby Weather Stations